sensor_id;sensor_type;location;lat;lon;timestamp;P1;durP1;ratioP1;P2;durP2;ratioP2
1164;SDS011;571;50.930;6.926;2023-02-15T03:45:31;30.20;;;19.00;;
1164;SDS011;571;50.930;6.926;2023-02-15T03:48:01;30.33;;;20.50;;
1164;SDS011;571;50.930;6.926;2023-02-15T03:50:31;34.77;;;21.53;;
1164;SDS011;571;50.930;6.926;2023-02-15T03:53:19;32.37;;;20.00;;
1164;SDS011;571;50.930;6.926;2023-02-15T03:55:48;31.37;;;18.90;;
1164;SDS011;571;50.930;6.926;2023-02-15T03:58:15;29.67;;;17.83;;
1164;SDS011;571;50.930;6.926;2023-02-15T04:01:03;33.17;;;20.90;;
1164;SDS011;571;50.930;6.926;2023-02-15T04:03:55;28.33;;;17.97;;
1164;SDS011;571;50.930;6.926;2023-02-15T04:06:26;29.10;;;18.47;;
1164;SDS011;571;50.930;6.926;2023-02-15T04:08:53;29.53;;;18.77;;
1164;SDS011;571;50.930;6.926;2023-02-15T04:11:37;33.67;;;21.57;;
1164;SDS011;571;50.930;6.926;2023-02-15T04:14:04;29.77;;;19.20;;
1164;SDS011;571;50.930;6.926;2023-02-15T04:16:52;30.70;;;19.03;;
1164;SDS011;571;50.930;6.926;2023-02-15T04:19:18;29.20;;;17.60;;
1164;SDS011;571;50.930;6.926;2023-02-15T04:22:03;30.50;;;19.30;;
1164;SDS011;571;50.930;6.926;2023-02-15T04:24:47;33.77;;;20.17;;
1164;SDS011;571;50.930;6.926;2023-02-15T04:27:31;27.47;;;18.83;;
1164;SDS011;571;50.930;6.926;2023-02-15T04:29:58;30.30;;;20.87;;
1164;SDS011;571;50.930;6.926;2023-02-15T04:32:26;35.17;;;20.90;;
1164;SDS011;571;50.930;6.926;2023-02-15T04:34:53;29.37;;;20.97;;
1164;SDS011;571;50.930;6.926;2023-02-15T04:37:20;31.83;;;21.57;;
1164;SDS011;571;50.930;6.926;2023-02-15T04:39:46;26.63;;;17.60;;
1164;SDS011;571;50.930;6.926;2023-02-15T04:42:14;30.67;;;21.30;;
1164;SDS011;571;50.930;6.926;2023-02-15T04:44:41;36.13;;;18.70;;
1164;SDS011;571;50.930;6.926;2023-02-15T04:47:08;28.67;;;17.83;;
1164;SDS011;571;50.930;6.926;2023-02-15T04:49:36;20.30;;;12.90;;
1164;SDS011;571;50.930;6.926;2023-02-15T04:52:03;32.80;;;17.47;;
1164;SDS011;571;50.930;6.926;2023-02-15T04:54:30;30.87;;;19.20;;
1164;SDS011;571;50.930;6.926;2023-02-15T04:56:56;26.50;;;17.90;;
1164;SDS011;571;50.930;6.926;2023-02-15T04:59:25;32.13;;;19.27;;
1164;SDS011;571;50.930;6.926;2023-02-15T05:01:51;27.67;;;18.27;;
1164;SDS011;571;50.930;6.926;2023-02-15T05:04:18;32.53;;;19.40;;
1164;SDS011;571;50.930;6.926;2023-02-15T05:06:46;29.83;;;18.33;;
1164;SDS011;571;50.930;6.926;2023-02-15T05:09:13;28.07;;;18.80;;
1164;SDS011;571;50.930;6.926;2023-02-15T05:11:40;27.77;;;18.57;;
1164;SDS011;571;50.930;6.926;2023-02-15T05:14:07;33.30;;;16.80;;
1164;SDS011;571;50.930;6.926;2023-02-15T05:16:34;27.77;;;18.67;;
1164;SDS011;571;50.930;6.926;2023-02-15T05:19:01;26.70;;;17.47;;
1164;SDS011;571;50.930;6.926;2023-02-15T05:21:28;26.40;;;18.50;;
1164;SDS011;571;50.930;6.926;2023-02-15T05:23:56;29.30;;;18.70;;
1164;SDS011;571;50.930;6.926;2023-02-15T05:26:24;26.73;;;18.00;;
1164;SDS011;571;50.930;6.926;2023-02-15T05:29:09;38.90;;;21.33;;
1164;SDS011;571;50.930;6.926;2023-02-15T05:31:36;28.57;;;17.90;;
1164;SDS011;571;50.930;6.926;2023-02-15T05:34:03;33.00;;;20.03;;
1164;SDS011;571;50.930;6.926;2023-02-15T05:36:30;28.33;;;19.07;;
1164;SDS011;571;50.930;6.926;2023-02-15T05:38:58;31.63;;;17.77;;
1164;SDS011;571;50.930;6.926;2023-02-15T05:41:25;26.23;;;17.17;;
1164;SDS011;571;50.930;6.926;2023-02-15T05:43:54;29.80;;;19.00;;
1164;SDS011;571;50.930;6.926;2023-02-15T05:46:21;31.57;;;18.20;;
1164;SDS011;571;50.930;6.926;2023-02-15T05:48:48;24.70;;;15.60;;
1164;SDS011;571;50.930;6.926;2023-02-15T05:51:14;27.87;;;17.50;;
1164;SDS011;571;50.930;6.926;2023-02-15T05:53:41;26.93;;;16.70;;
1164;SDS011;571;50.930;6.926;2023-02-15T05:56:10;29.03;;;16.93;;
1164;SDS011;571;50.930;6.926;2023-02-15T05:58:38;31.40;;;18.50;;
1164;SDS011;571;50.930;6.926;2023-02-15T06:01:09;29.50;;;17.60;;
1164;SDS011;571;50.930;6.926;2023-02-15T06:03:37;25.50;;;16.77;;
1164;SDS011;571;50.930;6.926;2023-02-15T06:06:04;24.27;;;16.17;;
1164;SDS011;571;50.930;6.926;2023-02-15T06:08:31;31.13;;;19.53;;
1164;SDS011;571;50.930;6.926;2023-02-15T06:10:58;26.23;;;16.77;;
1164;SDS011;571;50.930;6.926;2023-02-15T06:13:26;24.73;;;15.67;;
1164;SDS011;571;50.930;6.926;2023-02-15T06:15:53;28.50;;;17.97;;
1164;SDS011;571;50.930;6.926;2023-02-15T06:18:20;24.53;;;16.23;;
1164;SDS011;571;50.930;6.926;2023-02-15T06:20:47;25.20;;;16.73;;
1164;SDS011;571;50.930;6.926;2023-02-15T06:23:14;29.93;;;17.10;;
1164;SDS011;571;50.930;6.926;2023-02-15T06:25:41;26.83;;;17.13;;
1164;SDS011;571;50.930;6.926;2023-02-15T06:28:09;26.50;;;17.77;;
1164;SDS011;571;50.930;6.926;2023-02-15T06:30:38;30.77;;;18.20;;
1164;SDS011;571;50.930;6.926;2023-02-15T06:33:05;27.57;;;16.77;;
1164;SDS011;571;50.930;6.926;2023-02-15T06:35:31;28.17;;;15.67;;
1164;SDS011;571;50.930;6.926;2023-02-15T06:37:58;26.90;;;17.23;;
1164;SDS011;571;50.930;6.926;2023-02-15T06:40:25;26.90;;;17.47;;
1164;SDS011;571;50.930;6.926;2023-02-15T06:42:52;25.73;;;16.70;;
1164;SDS011;571;50.930;6.926;2023-02-15T06:45:18;26.87;;;17.47;;
1164;SDS011;571;50.930;6.926;2023-02-15T06:47:47;35.33;;;17.40;;
1164;SDS011;571;50.930;6.926;2023-02-15T06:50:13;24.83;;;16.13;;
1164;SDS011;571;50.930;6.926;2023-02-15T06:52:40;26.83;;;17.63;;
1164;SDS011;571;50.930;6.926;2023-02-15T06:55:07;31.10;;;19.30;;
1164;SDS011;571;50.930;6.926;2023-02-15T06:57:34;24.60;;;16.80;;
1164;SDS011;571;50.930;6.926;2023-02-15T07:00:00;28.10;;;17.33;;
1164;SDS011;571;50.930;6.926;2023-02-15T07:02:29;25.80;;;16.20;;
1164;SDS011;571;50.930;6.926;2023-02-15T07:04:57;24.60;;;14.00;;
1164;SDS011;571;50.930;6.926;2023-02-15T07:07:25;24.70;;;14.83;;
1164;SDS011;571;50.930;6.926;2023-02-15T07:09:52;24.30;;;15.80;;
1164;SDS011;571;50.930;6.926;2023-02-15T07:12:19;24.90;;;16.33;;
1164;SDS011;571;50.930;6.926;2023-02-15T07:15:03;32.33;;;17.00;;
1164;SDS011;571;50.930;6.926;2023-02-15T07:17:31;30.93;;;17.60;;
1164;SDS011;571;50.930;6.926;2023-02-15T07:19:59;25.57;;;17.00;;
1164;SDS011;571;50.930;6.926;2023-02-15T07:22:26;22.13;;;14.77;;
1164;SDS011;571;50.930;6.926;2023-02-15T07:24:53;24.47;;;16.97;;
1164;SDS011;571;50.930;6.926;2023-02-15T07:27:20;26.97;;;16.80;;
1164;SDS011;571;50.930;6.926;2023-02-15T07:29:47;24.40;;;17.43;;
1164;SDS011;571;50.930;6.926;2023-02-15T07:32:14;22.20;;;15.70;;
1164;SDS011;571;50.930;6.926;2023-02-15T07:34:40;18.03;;;12.77;;
1164;SDS011;571;50.930;6.926;2023-02-15T07:37:08;26.50;;;16.23;;
1164;SDS011;571;50.930;6.926;2023-02-15T07:39:35;24.53;;;15.57;;
1164;SDS011;571;50.930;6.926;2023-02-15T07:42:02;22.40;;;15.07;;
1164;SDS011;571;50.930;6.926;2023-02-15T07:44:28;27.27;;;16.00;;
1164;SDS011;571;50.930;6.926;2023-02-15T07:46:55;24.10;;;14.40;;
1164;SDS011;571;50.930;6.926;2023-02-15T07:49:22;20.93;;;14.33;;
1164;SDS011;571;50.930;6.926;2023-02-15T07:51:49;25.73;;;15.37;;
1164;SDS011;571;50.930;6.926;2023-02-15T07:54:17;24.43;;;15.00;;
1164;SDS011;571;50.930;6.926;2023-02-15T07:56:43;29.03;;;14.10;;
1164;SDS011;571;50.930;6.926;2023-02-15T07:59:10;27.10;;;16.63;;
1164;SDS011;571;50.930;6.926;2023-02-15T08:01:37;20.70;;;14.47;;
1164;SDS011;571;50.930;6.926;2023-02-15T08:04:05;21.20;;;14.53;;
1164;SDS011;571;50.930;6.926;2023-02-15T08:06:34;25.77;;;15.40;;
1164;SDS011;571;50.930;6.926;2023-02-15T08:09:03;18.63;;;13.63;;
1164;SDS011;571;50.930;6.926;2023-02-15T08:11:32;21.80;;;15.20;;
1164;SDS011;571;50.930;6.926;2023-02-15T08:14:03;19.90;;;14.47;;
1164;SDS011;571;50.930;6.926;2023-02-15T08:16:32;19.70;;;13.67;;
1164;SDS011;571;50.930;6.926;2023-02-15T08:19:01;22.37;;;15.53;;
1164;SDS011;571;50.930;6.926;2023-02-15T08:21:30;23.10;;;14.47;;
1164;SDS011;571;50.930;6.926;2023-02-15T08:23:58;21.60;;;15.67;;
1164;SDS011;571;50.930;6.926;2023-02-15T08:26:25;20.47;;;13.83;;
1164;SDS011;571;50.930;6.926;2023-02-15T08:28:54;17.63;;;15.10;;
1164;SDS011;571;50.930;6.926;2023-02-15T08:31:21;17.40;;;12.73;;
1164;SDS011;571;50.930;6.926;2023-02-15T08:33:49;22.03;;;14.00;;
1164;SDS011;571;50.930;6.926;2023-02-15T08:36:17;17.43;;;13.70;;
1164;SDS011;571;50.930;6.926;2023-02-15T08:38:45;23.83;;;16.80;;
1164;SDS011;571;50.930;6.926;2023-02-15T08:41:13;23.23;;;14.47;;
1164;SDS011;571;50.930;6.926;2023-02-15T08:43:41;22.63;;;13.73;;
1164;SDS011;571;50.930;6.926;2023-02-15T08:46:10;21.97;;;14.23;;
1164;SDS011;571;50.930;6.926;2023-02-15T08:48:37;17.67;;;12.17;;
1164;SDS011;571;50.930;6.926;2023-02-15T08:51:05;19.17;;;13.37;;
1164;SDS011;571;50.930;6.926;2023-02-15T08:53:35;20.13;;;15.00;;
1164;SDS011;571;50.930;6.926;2023-02-15T08:56:02;20.70;;;15.20;;
1164;SDS011;571;50.930;6.926;2023-02-15T08:58:29;21.97;;;14.70;;
1164;SDS011;571;50.930;6.926;2023-02-15T09:00:56;25.40;;;13.77;;
1164;SDS011;571;50.930;6.926;2023-02-15T09:03:25;18.20;;;13.90;;
1164;SDS011;571;50.930;6.926;2023-02-15T09:05:56;22.70;;;13.20;;
1164;SDS011;571;50.930;6.926;2023-02-15T09:08:24;17.30;;;12.70;;
1164;SDS011;571;50.930;6.926;2023-02-15T09:10:51;18.43;;;13.40;;
1164;SDS011;571;50.930;6.926;2023-02-15T09:13:17;18.13;;;13.10;;
1164;SDS011;571;50.930;6.926;2023-02-15T09:15:45;22.67;;;14.43;;
1164;SDS011;571;50.930;6.926;2023-02-15T09:18:12;18.93;;;14.20;;
1164;SDS011;571;50.930;6.926;2023-02-15T09:20:43;16.90;;;13.30;;
1164;SDS011;571;50.930;6.926;2023-02-15T09:23:10;16.40;;;12.43;;
1164;SDS011;571;50.930;6.926;2023-02-15T09:25:37;15.67;;;11.90;;
1164;SDS011;571;50.930;6.926;2023-02-15T09:28:03;15.03;;;13.37;;
1164;SDS011;571;50.930;6.926;2023-02-15T09:30:30;16.57;;;12.43;;
1164;SDS011;571;50.930;6.926;2023-02-15T09:32:57;23.90;;;11.73;;
1164;SDS011;571;50.930;6.926;2023-02-15T09:35:24;15.83;;;10.37;;
1164;SDS011;571;50.930;6.926;2023-02-15T09:37:52;21.23;;;14.23;;
1164;SDS011;571;50.930;6.926;2023-02-15T09:40:19;16.60;;;11.43;;
1164;SDS011;571;50.930;6.926;2023-02-15T09:42:48;16.10;;;12.43;;
1164;SDS011;571;50.930;6.926;2023-02-15T09:45:26;14.60;;;12.30;;
1164;SDS011;571;50.930;6.926;2023-02-15T09:48:16;19.67;;;13.57;;
1164;SDS011;571;50.930;6.926;2023-02-15T09:50:54;18.13;;;13.17;;
1164;SDS011;571;50.930;6.926;2023-02-15T09:53:36;17.47;;;11.67;;
1164;SDS011;571;50.930;6.926;2023-02-15T09:56:14;17.80;;;14.00;;
1164;SDS011;571;50.930;6.926;2023-02-15T09:58:46;20.57;;;13.47;;
1164;SDS011;571;50.930;6.926;2023-02-15T10:01:24;13.80;;;10.57;;
1164;SDS011;571;50.930;6.926;2023-02-15T10:04:06;20.30;;;13.40;;
1164;SDS011;571;50.930;6.926;2023-02-15T10:06:48;16.27;;;12.67;;
1164;SDS011;571;50.930;6.926;2023-02-15T10:09:31;18.03;;;11.37;;
1164;SDS011;571;50.930;6.926;2023-02-15T10:12:08;16.93;;;11.60;;
1164;SDS011;571;50.930;6.926;2023-02-15T10:14:50;18.73;;;12.27;;
1164;SDS011;571;50.930;6.926;2023-02-15T10:17:55;15.47;;;11.40;;
1164;SDS011;571;50.930;6.926;2023-02-15T10:20:45;16.50;;;11.80;;
1164;SDS011;571;50.930;6.926;2023-02-15T10:23:26;15.63;;;12.53;;
1164;SDS011;571;50.930;6.926;2023-02-15T10:26:07;16.73;;;11.90;;
1164;SDS011;571;50.930;6.926;2023-02-15T10:28:41;19.17;;;12.70;;
1164;SDS011;571;50.930;6.926;2023-02-15T10:31:15;19.40;;;13.13;;
1164;SDS011;571;50.930;6.926;2023-02-15T10:33:52;16.80;;;11.80;;
1164;SDS011;571;50.930;6.926;2023-02-15T10:36:37;17.10;;;11.40;;
1164;SDS011;571;50.930;6.926;2023-02-15T10:39:25;16.37;;;12.57;;
1164;SDS011;571;50.930;6.926;2023-02-15T10:42:02;15.63;;;11.60;;
1164;SDS011;571;50.930;6.926;2023-02-15T10:44:39;20.10;;;12.43;;
1164;SDS011;571;50.930;6.926;2023-02-15T10:50:20;20.50;;;12.60;;
1164;SDS011;571;50.930;6.926;2023-02-15T10:52:55;15.60;;;11.00;;
1164;SDS011;571;50.930;6.926;2023-02-15T10:55:47;16.57;;;13.17;;
1164;SDS011;571;50.930;6.926;2023-02-15T10:58:24;17.73;;;11.83;;
1164;SDS011;571;50.930;6.926;2023-02-15T11:01:06;16.97;;;11.90;;
1164;SDS011;571;50.930;6.926;2023-02-15T11:03:42;15.83;;;12.67;;
1164;SDS011;571;50.930;6.926;2023-02-15T11:06:21;18.80;;;13.27;;
1164;SDS011;571;50.930;6.926;2023-02-15T11:08:53;14.07;;;11.87;;
1164;SDS011;571;50.930;6.926;2023-02-15T11:11:24;17.37;;;11.10;;
1164;SDS011;571;50.930;6.926;2023-02-15T11:13:57;16.43;;;11.83;;
1164;SDS011;571;50.930;6.926;2023-02-15T11:16:29;13.20;;;10.80;;
1164;SDS011;571;50.930;6.926;2023-02-15T11:19:00;16.10;;;12.37;;
1164;SDS011;571;50.930;6.926;2023-02-15T11:21:33;15.57;;;12.10;;
1164;SDS011;571;50.930;6.926;2023-02-15T11:24:07;18.63;;;11.00;;
1164;SDS011;571;50.930;6.926;2023-02-15T11:26:36;17.73;;;10.97;;
1164;SDS011;571;50.930;6.926;2023-02-15T11:29:08;13.50;;;10.97;;
1164;SDS011;571;50.930;6.926;2023-02-15T11:31:41;16.70;;;13.20;;
1164;SDS011;571;50.930;6.926;2023-02-15T11:34:12;17.17;;;11.87;;
1164;SDS011;571;50.930;6.926;2023-02-15T11:36:43;15.07;;;12.00;;
1164;SDS011;571;50.930;6.926;2023-02-15T11:39:13;15.97;;;12.07;;
1164;SDS011;571;50.930;6.926;2023-02-15T11:41:44;20.83;;;13.40;;
1164;SDS011;571;50.930;6.926;2023-02-15T11:44:17;16.13;;;12.43;;
1164;SDS011;571;50.930;6.926;2023-02-15T11:46:48;16.37;;;12.63;;
1164;SDS011;571;50.930;6.926;2023-02-15T11:49:20;15.37;;;12.13;;
1164;SDS011;571;50.930;6.926;2023-02-15T11:51:49;20.23;;;13.20;;
1164;SDS011;571;50.930;6.926;2023-02-15T11:54:17;14.80;;;12.17;;
1164;SDS011;571;50.930;6.926;2023-02-15T11:56:45;14.50;;;11.57;;
1164;SDS011;571;50.930;6.926;2023-02-15T11:59:13;14.37;;;12.30;;
1164;SDS011;571;50.930;6.926;2023-02-15T12:01:46;16.63;;;11.97;;
1164;SDS011;571;50.930;6.926;2023-02-15T12:04:14;14.73;;;12.40;;
1164;SDS011;571;50.930;6.926;2023-02-15T12:06:48;17.37;;;12.53;;
1164;SDS011;571;50.930;6.926;2023-02-15T12:09:20;15.10;;;12.13;;
1164;SDS011;571;50.930;6.926;2023-02-15T12:11:54;14.87;;;12.13;;
1164;SDS011;571;50.930;6.926;2023-02-15T12:14:51;13.97;;;10.83;;
1164;SDS011;571;50.930;6.926;2023-02-15T12:17:20;19.17;;;13.23;;
1164;SDS011;571;50.930;6.926;2023-02-15T12:19:48;14.43;;;12.10;;
1164;SDS011;571;50.930;6.926;2023-02-15T12:22:18;20.03;;;12.37;;
1164;SDS011;571;50.930;6.926;2023-02-15T12:24:48;13.70;;;11.57;;
1164;SDS011;571;50.930;6.926;2023-02-15T12:27:17;16.80;;;13.30;;
1164;SDS011;571;50.930;6.926;2023-02-15T12:29:47;15.17;;;12.00;;
1164;SDS011;571;50.930;6.926;2023-02-15T12:32:18;16.27;;;13.03;;
1164;SDS011;571;50.930;6.926;2023-02-15T12:34:48;16.37;;;12.73;;
1164;SDS011;571;50.930;6.926;2023-02-15T12:37:17;16.40;;;11.80;;
1164;SDS011;571;50.930;6.926;2023-02-15T12:39:54;16.53;;;13.43;;
1164;SDS011;571;50.930;6.926;2023-02-15T12:42:22;12.90;;;11.03;;
1164;SDS011;571;50.930;6.926;2023-02-15T12:44:55;13.57;;;11.53;;
1164;SDS011;571;50.930;6.926;2023-02-15T12:47:24;17.23;;;11.77;;
1164;SDS011;571;50.930;6.926;2023-02-15T12:52:48;11.97;;;10.33;;
1164;SDS011;571;50.930;6.926;2023-02-15T12:55:21;15.77;;;12.23;;
1164;SDS011;571;50.930;6.926;2023-02-15T12:57:49;13.93;;;11.80;;
1164;SDS011;571;50.930;6.926;2023-02-15T13:00:33;14.00;;;11.90;;
1164;SDS011;571;50.930;6.926;2023-02-15T13:03:00;15.13;;;12.50;;
1164;SDS011;571;50.930;6.926;2023-02-15T13:05:31;13.97;;;12.40;;
1164;SDS011;571;50.930;6.926;2023-02-15T13:08:01;15.80;;;11.27;;
1164;SDS011;571;50.930;6.926;2023-02-15T13:10:31;17.67;;;13.03;;
1164;SDS011;571;50.930;6.926;2023-02-15T13:13:01;16.00;;;12.27;;
1164;SDS011;571;50.930;6.926;2023-02-15T13:15:36;19.70;;;11.87;;
1164;SDS011;571;50.930;6.926;2023-02-15T13:18:10;14.30;;;12.33;;
1164;SDS011;571;50.930;6.926;2023-02-15T13:20:39;13.83;;;10.87;;
1164;SDS011;571;50.930;6.926;2023-02-15T13:23:11;14.67;;;12.70;;
1164;SDS011;571;50.930;6.926;2023-02-15T13:25:46;15.10;;;11.37;;
1164;SDS011;571;50.930;6.926;2023-02-15T13:28:16;14.90;;;12.63;;
1164;SDS011;571;50.930;6.926;2023-02-15T13:30:47;14.90;;;12.40;;
1164;SDS011;571;50.930;6.926;2023-02-15T13:33:16;15.20;;;11.57;;
1164;SDS011;571;50.930;6.926;2023-02-15T13:35:53;13.20;;;10.77;;
1164;SDS011;571;50.930;6.926;2023-02-15T13:38:31;13.90;;;11.57;;
1164;SDS011;571;50.930;6.926;2023-02-15T13:42:03;15.57;;;12.87;;
1164;SDS011;571;50.930;6.926;2023-02-15T14:01:49;15.03;;;10.67;;
1164;SDS011;571;50.930;6.926;2023-02-15T14:10:31;15.33;;;12.87;;
1164;SDS011;571;50.930;6.926;2023-02-15T14:13:12;15.80;;;11.60;;
1164;SDS011;571;50.930;6.926;2023-02-15T14:16:01;15.00;;;12.13;;
1164;SDS011;571;50.930;6.926;2023-02-15T14:18:35;18.43;;;12.90;;
1164;SDS011;571;50.930;6.926;2023-02-15T14:21:08;13.10;;;11.60;;
1164;SDS011;571;50.930;6.926;2023-02-15T14:23:43;12.47;;;10.43;;
1164;SDS011;571;50.930;6.926;2023-02-15T14:26:19;13.13;;;10.93;;
1164;SDS011;571;50.930;6.926;2023-02-15T14:28:51;16.30;;;11.60;;
1164;SDS011;571;50.930;6.926;2023-02-15T14:31:25;13.70;;;11.10;;
1164;SDS011;571;50.930;6.926;2023-02-15T14:33:56;16.13;;;12.20;;
1164;SDS011;571;50.930;6.926;2023-02-15T14:36:24;15.83;;;12.13;;
1164;SDS011;571;50.930;6.926;2023-02-15T14:38:59;13.03;;;10.47;;
1164;SDS011;571;50.930;6.926;2023-02-15T14:41:52;15.00;;;11.83;;
1164;SDS011;571;50.930;6.926;2023-02-15T14:44:23;16.27;;;12.07;;
1164;SDS011;571;50.930;6.926;2023-02-15T14:46:58;18.13;;;11.70;;
1164;SDS011;571;50.930;6.926;2023-02-15T14:49:31;15.73;;;10.97;;
1164;SDS011;571;50.930;6.926;2023-02-15T14:52:02;15.53;;;11.60;;
1164;SDS011;571;50.930;6.926;2023-02-15T14:57:33;16.87;;;12.20;;
1164;SDS011;571;50.930;6.926;2023-02-15T15:00:01;13.70;;;12.33;;
1164;SDS011;571;50.930;6.926;2023-02-15T15:02:54;12.93;;;10.37;;
1164;SDS011;571;50.930;6.926;2023-02-15T15:05:22;16.00;;;12.33;;
1164;SDS011;571;50.930;6.926;2023-02-15T15:07:55;18.63;;;13.17;;
1164;SDS011;571;50.930;6.926;2023-02-15T15:10:35;19.07;;;12.50;;
1164;SDS011;571;50.930;6.926;2023-02-15T15:22:30;12.37;;;10.90;;
1164;SDS011;571;50.930;6.926;2023-02-15T15:24:58;17.43;;;12.57;;
1164;SDS011;571;50.930;6.926;2023-02-15T15:33:20;16.03;;;12.53;;
1164;SDS011;571;50.930;6.926;2023-02-15T15:36:17;15.60;;;11.50;;
1164;SDS011;571;50.930;6.926;2023-02-15T15:42:39;16.23;;;12.27;;
1164;SDS011;571;50.930;6.926;2023-02-15T15:45:46;17.03;;;12.57;;
1164;SDS011;571;50.930;6.926;2023-02-15T15:48:27;14.37;;;12.83;;
1164;SDS011;571;50.930;6.926;2023-02-15T15:50:59;16.20;;;11.93;;
1164;SDS011;571;50.930;6.926;2023-02-15T15:53:31;18.33;;;14.80;;
1164;SDS011;571;50.930;6.926;2023-02-15T15:56:02;17.80;;;13.80;;
1164;SDS011;571;50.930;6.926;2023-02-15T15:58:31;15.13;;;12.20;;
1164;SDS011;571;50.930;6.926;2023-02-15T16:01:02;13.97;;;12.07;;
1164;SDS011;571;50.930;6.926;2023-02-15T16:03:33;16.17;;;13.10;;
1164;SDS011;571;50.930;6.926;2023-02-15T16:06:00;16.73;;;15.00;;
1164;SDS011;571;50.930;6.926;2023-02-15T16:08:27;19.17;;;12.73;;
1164;SDS011;571;50.930;6.926;2023-02-15T16:10:56;20.90;;;13.83;;
1164;SDS011;571;50.930;6.926;2023-02-15T16:13:33;18.53;;;13.43;;
1164;SDS011;571;50.930;6.926;2023-02-15T16:16:00;15.70;;;12.53;;
1164;SDS011;571;50.930;6.926;2023-02-15T16:18:27;17.83;;;14.10;;
1164;SDS011;571;50.930;6.926;2023-02-15T16:20:54;13.97;;;12.33;;
1164;SDS011;571;50.930;6.926;2023-02-15T16:23:39;14.93;;;13.20;;
1164;SDS011;571;50.930;6.926;2023-02-15T16:29:39;16.57;;;13.90;;
1164;SDS011;571;50.930;6.926;2023-02-15T16:32:14;16.80;;;13.20;;
1164;SDS011;571;50.930;6.926;2023-02-15T16:34:49;17.50;;;13.23;;
1164;SDS011;571;50.930;6.926;2023-02-15T16:37:22;19.30;;;13.30;;
1164;SDS011;571;50.930;6.926;2023-02-15T16:39:51;17.20;;;14.40;;
1164;SDS011;571;50.930;6.926;2023-02-15T16:42:19;16.47;;;12.90;;
1164;SDS011;571;50.930;6.926;2023-02-15T16:44:48;18.23;;;13.93;;
1164;SDS011;571;50.930;6.926;2023-02-15T16:47:17;15.90;;;13.00;;
1164;SDS011;571;50.930;6.926;2023-02-15T16:49:48;18.50;;;14.10;;
1164;SDS011;571;50.930;6.926;2023-02-15T16:52:19;21.43;;;13.87;;
1164;SDS011;571;50.930;6.926;2023-02-15T16:54:49;18.90;;;13.60;;
1164;SDS011;571;50.930;6.926;2023-02-15T16:57:20;15.47;;;12.90;;
1164;SDS011;571;50.930;6.926;2023-02-15T16:59:50;16.63;;;12.80;;
1164;SDS011;571;50.930;6.926;2023-02-15T17:02:21;17.20;;;12.60;;
1164;SDS011;571;50.930;6.926;2023-02-15T17:07:41;16.33;;;12.53;;
1164;SDS011;571;50.930;6.926;2023-02-15T17:13:09;14.37;;;12.33;;
1164;SDS011;571;50.930;6.926;2023-02-15T17:15:39;13.60;;;11.97;;
1164;SDS011;571;50.930;6.926;2023-02-15T17:18:09;16.03;;;13.00;;
1164;SDS011;571;50.930;6.926;2023-02-15T17:20:40;19.23;;;13.10;;
1164;SDS011;571;50.930;6.926;2023-02-15T17:23:17;15.60;;;12.70;;
1164;SDS011;571;50.930;6.926;2023-02-15T17:25:48;13.50;;;11.70;;
1164;SDS011;571;50.930;6.926;2023-02-15T17:28:16;20.40;;;12.10;;
1164;SDS011;571;50.930;6.926;2023-02-15T17:30:47;16.23;;;13.03;;
1164;SDS011;571;50.930;6.926;2023-02-15T17:33:19;14.90;;;13.00;;
1164;SDS011;571;50.930;6.926;2023-02-15T17:36:04;15.37;;;13.77;;
1164;SDS011;571;50.930;6.926;2023-02-15T17:38:34;15.30;;;13.23;;
1164;SDS011;571;50.930;6.926;2023-02-15T17:41:02;16.00;;;12.90;;
1164;SDS011;571;50.930;6.926;2023-02-15T17:43:29;15.00;;;12.30;;
1164;SDS011;571;50.930;6.926;2023-02-15T17:45:57;17.60;;;13.07;;
1164;SDS011;571;50.930;6.926;2023-02-15T17:48:28;21.40;;;14.67;;
1164;SDS011;571;50.930;6.926;2023-02-15T17:50:57;18.03;;;13.33;;
1164;SDS011;571;50.930;6.926;2023-02-15T17:53:26;20.73;;;14.20;;
1164;SDS011;571;50.930;6.926;2023-02-15T17:55:55;15.40;;;12.13;;
1164;SDS011;571;50.930;6.926;2023-02-15T17:58:23;16.73;;;12.37;;
1164;SDS011;571;50.930;6.926;2023-02-15T18:00:54;16.00;;;12.67;;
1164;SDS011;571;50.930;6.926;2023-02-15T18:03:48;16.90;;;13.10;;
1164;SDS011;571;50.930;6.926;2023-02-15T18:06:35;18.07;;;14.10;;
1164;SDS011;571;50.930;6.926;2023-02-15T18:09:24;19.20;;;13.33;;
1164;SDS011;571;50.930;6.926;2023-02-15T18:12:14;17.77;;;13.00;;
1164;SDS011;571;50.930;6.926;2023-02-15T18:14:45;16.87;;;13.13;;
1164;SDS011;571;50.930;6.926;2023-02-15T18:17:23;20.43;;;13.77;;
1164;SDS011;571;50.930;6.926;2023-02-15T18:19:53;17.47;;;13.47;;
1164;SDS011;571;50.930;6.926;2023-02-15T18:22:27;14.87;;;13.23;;
1164;SDS011;571;50.930;6.926;2023-02-15T18:24:55;18.00;;;12.60;;
1164;SDS011;571;50.930;6.926;2023-02-15T18:27:22;18.57;;;13.87;;
1164;SDS011;571;50.930;6.926;2023-02-15T18:29:49;19.20;;;13.70;;
1164;SDS011;571;50.930;6.926;2023-02-15T18:32:17;18.93;;;14.03;;
1164;SDS011;571;50.930;6.926;2023-02-15T18:34:47;17.37;;;14.27;;
1164;SDS011;571;50.930;6.926;2023-02-15T18:37:17;18.40;;;13.03;;
1164;SDS011;571;50.930;6.926;2023-02-15T18:39:46;17.57;;;13.90;;
1164;SDS011;571;50.930;6.926;2023-02-15T18:42:17;21.07;;;14.53;;
1164;SDS011;571;50.930;6.926;2023-02-15T18:44:45;20.00;;;15.10;;
1164;SDS011;571;50.930;6.926;2023-02-15T18:47:12;19.53;;;15.40;;
1164;SDS011;571;50.930;6.926;2023-02-15T18:49:39;19.67;;;14.37;;
1164;SDS011;571;50.930;6.926;2023-02-15T18:52:09;22.97;;;15.87;;
1164;SDS011;571;50.930;6.926;2023-02-15T18:54:40;17.03;;;14.03;;
1164;SDS011;571;50.930;6.926;2023-02-15T18:57:08;17.30;;;14.50;;
1164;SDS011;571;50.930;6.926;2023-02-15T18:59:39;17.60;;;14.50;;
1164;SDS011;571;50.930;6.926;2023-02-15T19:02:10;21.80;;;15.23;;
1164;SDS011;571;50.930;6.926;2023-02-15T19:04:38;19.17;;;15.23;;
1164;SDS011;571;50.930;6.926;2023-02-15T19:07:05;15.83;;;13.80;;
1164;SDS011;571;50.930;6.926;2023-02-15T19:09:40;17.37;;;14.03;;
1164;SDS011;571;50.930;6.926;2023-02-15T19:12:08;20.23;;;14.50;;
1164;SDS011;571;50.930;6.926;2023-02-15T19:14:37;17.57;;;12.77;;
1164;SDS011;571;50.930;6.926;2023-02-15T19:17:08;18.33;;;13.20;;
1164;SDS011;571;50.930;6.926;2023-02-15T19:19:40;21.87;;;14.60;;
1164;SDS011;571;50.930;6.926;2023-02-15T19:22:08;21.50;;;14.60;;
1164;SDS011;571;50.930;6.926;2023-02-15T19:24:39;18.90;;;13.50;;
1164;SDS011;571;50.930;6.926;2023-02-15T19:27:10;17.40;;;13.60;;
1164;SDS011;571;50.930;6.926;2023-02-15T19:29:45;17.47;;;13.23;;
1164;SDS011;571;50.930;6.926;2023-02-15T19:32:15;16.13;;;14.10;;
1164;SDS011;571;50.930;6.926;2023-02-15T19:34:42;19.37;;;14.53;;
1164;SDS011;571;50.930;6.926;2023-02-15T19:37:14;18.57;;;15.43;;
1164;SDS011;571;50.930;6.926;2023-02-15T19:39:47;18.70;;;14.13;;
1164;SDS011;571;50.930;6.926;2023-02-15T19:42:14;20.70;;;13.93;;
1164;SDS011;571;50.930;6.926;2023-02-15T19:44:44;17.70;;;13.30;;
1164;SDS011;571;50.930;6.926;2023-02-15T19:47:12;19.50;;;14.97;;
1164;SDS011;571;50.930;6.926;2023-02-15T19:49:39;21.23;;;14.47;;
1164;SDS011;571;50.930;6.926;2023-02-15T19:52:09;19.27;;;14.70;;
1164;SDS011;571;50.930;6.926;2023-02-15T19:54:42;17.13;;;12.57;;
1164;SDS011;571;50.930;6.926;2023-02-15T19:57:09;19.30;;;14.80;;
1164;SDS011;571;50.930;6.926;2023-02-15T19:59:38;16.43;;;14.30;;
1164;SDS011;571;50.930;6.926;2023-02-15T20:02:05;22.30;;;15.63;;
1164;SDS011;571;50.930;6.926;2023-02-15T20:04:35;19.53;;;14.50;;
1164;SDS011;571;50.930;6.926;2023-02-15T20:07:02;18.50;;;14.43;;
1164;SDS011;571;50.930;6.926;2023-02-15T20:09:37;24.17;;;14.60;;
1164;SDS011;571;50.930;6.926;2023-02-15T20:12:08;18.60;;;15.43;;